sensor_id;sensor_type;location;lat;lon;timestamp;temperature;humidity
42365;DHT22;28498;54.400;18.566;2023-07-31T00:00:15;15.30;99.90
42365;DHT22;28498;54.400;18.566;2023-07-31T00:02:42;15.20;99.90
42365;DHT22;28498;54.400;18.566;2023-07-31T00:05:09;15.20;99.90
42365;DHT22;28498;54.400;18.566;2023-07-31T00:07:36;15.20;99.90
42365;DHT22;28498;54.400;18.566;2023-07-31T00:10:04;15.20;99.90
42365;DHT22;28498;54.400;18.566;2023-07-31T00:12:31;15.20;99.90
42365;DHT22;28498;54.400;18.566;2023-07-31T00:14:58;15.20;99.90
42365;DHT22;28498;54.400;18.566;2023-07-31T00:17:25;15.30;99.90
42365;DHT22;28498;54.400;18.566;2023-07-31T00:19:52;15.20;99.90
42365;DHT22;28498;54.400;18.566;2023-07-31T00:22:19;15.20;99.90
42365;DHT22;28498;54.400;18.566;2023-07-31T00:24:46;15.10;99.90
42365;DHT22;28498;54.400;18.566;2023-07-31T00:27:13;15.10;99.90
42365;DHT22;28498;54.400;18.566;2023-07-31T00:29:40;15.00;99.90
42365;DHT22;28498;54.400;18.566;2023-07-31T00:32:08;14.90;99.90
42365;DHT22;28498;54.400;18.566;2023-07-31T00:34:35;14.90;99.90
42365;DHT22;28498;54.400;18.566;2023-07-31T00:37:02;14.80;99.90
42365;DHT22;28498;54.400;18.566;2023-07-31T00:39:30;14.80;99.90
42365;DHT22;28498;54.400;18.566;2023-07-31T00:41:57;14.70;99.90
42365;DHT22;28498;54.400;18.566;2023-07-31T00:44:24;14.70;99.90
42365;DHT22;28498;54.400;18.566;2023-07-31T00:46:52;14.70;99.90
42365;DHT22;28498;54.400;18.566;2023-07-31T00:49:21;14.60;99.90
42365;DHT22;28498;54.400;18.566;2023-07-31T00:51:49;14.60;99.90
42365;DHT22;28498;54.400;18.566;2023-07-31T00:54:16;14.60;99.90
42365;DHT22;28498;54.400;18.566;2023-07-31T00:56:45;14.50;99.90
42365;DHT22;28498;54.400;18.566;2023-07-31T00:59:12;14.50;99.90
42365;DHT22;28498;54.400;18.566;2023-07-31T01:01:40;14.60;99.90
42365;DHT22;28498;54.400;18.566;2023-07-31T01:04:07;14.60;99.90
42365;DHT22;28498;54.400;18.566;2023-07-31T01:12:04;14.50;99.90
42365;DHT22;28498;54.400;18.566;2023-07-31T01:14:33;14.50;99.90
42365;DHT22;28498;54.400;18.566;2023-07-31T01:17:00;14.40;99.90
42365;DHT22;28498;54.400;18.566;2023-07-31T01:19:28;14.40;99.90
42365;DHT22;28498;54.400;18.566;2023-07-31T01:27:52;14.30;99.90
42365;DHT22;28498;54.400;18.566;2023-07-31T01:30:25;14.30;99.90
42365;DHT22;28498;54.400;18.566;2023-07-31T01:32:54;14.30;99.90
42365;DHT22;28498;54.400;18.566;2023-07-31T01:35:23;14.30;99.90
42365;DHT22;28498;54.400;18.566;2023-07-31T01:37:52;14.20;99.90
42365;DHT22;28498;54.400;18.566;2023-07-31T01:40:20;14.20;99.90
42365;DHT22;28498;54.400;18.566;2023-07-31T01:42:48;14.20;99.90
42365;DHT22;28498;54.400;18.566;2023-07-31T01:45:15;14.20;99.90
42365;DHT22;28498;54.400;18.566;2023-07-31T01:47:42;14.10;99.90
42365;DHT22;28498;54.400;18.566;2023-07-31T01:50:09;14.10;99.90
42365;DHT22;28498;54.400;18.566;2023-07-31T01:52:36;14.10;99.90
42365;DHT22;28498;54.400;18.566;2023-07-31T01:55:04;14.00;99.90
42365;DHT22;28498;54.400;18.566;2023-07-31T01:57:31;14.00;99.90
42365;DHT22;28498;54.400;18.566;2023-07-31T01:59:58;13.90;99.90
42365;DHT22;28498;54.400;18.566;2023-07-31T02:02:25;13.90;99.90
42365;DHT22;28498;54.400;18.566;2023-07-31T02:04:52;13.90;99.90
42365;DHT22;28498;54.400;18.566;2023-07-31T02:07:19;13.90;99.90
42365;DHT22;28498;54.400;18.566;2023-07-31T02:09:46;13.90;99.90
42365;DHT22;28498;54.400;18.566;2023-07-31T02:12:14;13.90;99.90
42365;DHT22;28498;54.400;18.566;2023-07-31T02:14:41;13.90;99.90
42365;DHT22;28498;54.400;18.566;2023-07-31T02:17:08;13.90;99.90
42365;DHT22;28498;54.400;18.566;2023-07-31T02:19:35;13.80;99.90
42365;DHT22;28498;54.400;18.566;2023-07-31T02:22:02;13.90;99.90
42365;DHT22;28498;54.400;18.566;2023-07-31T02:24:29;13.80;99.90
42365;DHT22;28498;54.400;18.566;2023-07-31T02:26:58;13.80;99.90
42365;DHT22;28498;54.400;18.566;2023-07-31T02:29:25;13.80;99.90
42365;DHT22;28498;54.400;18.566;2023-07-31T02:31:52;13.80;99.90
42365;DHT22;28498;54.400;18.566;2023-07-31T02:34:19;13.80;99.90
42365;DHT22;28498;54.400;18.566;2023-07-31T02:36:46;13.80;99.90
42365;DHT22;28498;54.400;18.566;2023-07-31T02:39:13;13.70;99.90
42365;DHT22;28498;54.400;18.566;2023-07-31T02:41:40;13.70;99.90
42365;DHT22;28498;54.400;18.566;2023-07-31T02:44:07;13.60;99.90
42365;DHT22;28498;54.400;18.566;2023-07-31T02:46:34;13.60;99.90
42365;DHT22;28498;54.400;18.566;2023-07-31T02:49:01;13.60;99.90
42365;DHT22;28498;54.400;18.566;2023-07-31T02:51:28;13.50;99.90
42365;DHT22;28498;54.400;18.566;2023-07-31T02:53:55;13.50;99.90
42365;DHT22;28498;54.400;18.566;2023-07-31T02:56:23;13.50;99.90
42365;DHT22;28498;54.400;18.566;2023-07-31T02:58:50;13.40;99.90
42365;DHT22;28498;54.400;18.566;2023-07-31T03:01:17;13.50;99.90
42365;DHT22;28498;54.400;18.566;2023-07-31T03:03:44;13.50;99.90
42365;DHT22;28498;54.400;18.566;2023-07-31T03:06:11;13.50;99.90
42365;DHT22;28498;54.400;18.566;2023-07-31T03:08:38;13.50;99.90
42365;DHT22;28498;54.400;18.566;2023-07-31T03:11:05;13.50;99.90
42365;DHT22;28498;54.400;18.566;2023-07-31T03:13:32;13.60;99.90
42365;DHT22;28498;54.400;18.566;2023-07-31T03:15:59;13.60;99.90
42365;DHT22;28498;54.400;18.566;2023-07-31T03:18:26;13.60;99.90
42365;DHT22;28498;54.400;18.566;2023-07-31T03:20:53;13.60;99.90
42365;DHT22;28498;54.400;18.566;2023-07-31T03:23:20;13.60;99.90
42365;DHT22;28498;54.400;18.566;2023-07-31T03:25:57;13.70;99.90
42365;DHT22;28498;54.400;18.566;2023-07-31T03:28:24;13.80;99.90
42365;DHT22;28498;54.400;18.566;2023-07-31T03:30:52;13.70;99.90
42365;DHT22;28498;54.400;18.566;2023-07-31T03:33:19;13.70;99.90
42365;DHT22;28498;54.400;18.566;2023-07-31T03:35:46;13.70;99.90
42365;DHT22;28498;54.400;18.566;2023-07-31T03:38:14;13.60;99.90
42365;DHT22;28498;54.400;18.566;2023-07-31T03:40:41;13.70;99.90
42365;DHT22;28498;54.400;18.566;2023-07-31T03:43:08;13.70;99.90
42365;DHT22;28498;54.400;18.566;2023-07-31T03:45:35;13.80;99.90
42365;DHT22;28498;54.400;18.566;2023-07-31T03:48:03;13.80;99.90
42365;DHT22;28498;54.400;18.566;2023-07-31T03:50:30;13.90;99.90
42365;DHT22;28498;54.400;18.566;2023-07-31T03:52:57;13.90;99.90
42365;DHT22;28498;54.400;18.566;2023-07-31T03:55:24;13.90;99.90
42365;DHT22;28498;54.400;18.566;2023-07-31T03:57:51;13.90;99.90
42365;DHT22;28498;54.400;18.566;2023-07-31T04:00:18;14.00;99.90
42365;DHT22;28498;54.400;18.566;2023-07-31T04:02:46;14.00;99.90
42365;DHT22;28498;54.400;18.566;2023-07-31T04:05:13;14.00;99.90
42365;DHT22;28498;54.400;18.566;2023-07-31T04:07:40;14.10;99.90
42365;DHT22;28498;54.400;18.566;2023-07-31T04:10:07;14.10;99.90
42365;DHT22;28498;54.400;18.566;2023-07-31T04:12:38;14.10;99.90
42365;DHT22;28498;54.400;18.566;2023-07-31T04:15:06;14.10;99.90
42365;DHT22;28498;54.400;18.566;2023-07-31T04:17:33;14.30;99.90
42365;DHT22;28498;54.400;18.566;2023-07-31T04:20:00;14.40;99.90
42365;DHT22;28498;54.400;18.566;2023-07-31T04:22:27;14.50;99.90
42365;DHT22;28498;54.400;18.566;2023-07-31T04:24:54;14.70;99.90
42365;DHT22;28498;54.400;18.566;2023-07-31T04:27:21;15.00;99.90
42365;DHT22;28498;54.400;18.566;2023-07-31T04:29:48;15.30;99.90
42365;DHT22;28498;54.400;18.566;2023-07-31T04:32:15;15.40;99.90
42365;DHT22;28498;54.400;18.566;2023-07-31T04:34:43;15.50;99.90
42365;DHT22;28498;54.400;18.566;2023-07-31T04:37:10;15.30;99.90
42365;DHT22;28498;54.400;18.566;2023-07-31T04:39:37;15.30;99.90
42365;DHT22;28498;54.400;18.566;2023-07-31T04:42:04;15.30;99.90
42365;DHT22;28498;54.400;18.566;2023-07-31T04:44:31;15.20;99.90
42365;DHT22;28498;54.400;18.566;2023-07-31T04:46:58;15.30;99.90
42365;DHT22;28498;54.400;18.566;2023-07-31T04:49:25;15.30;99.90
42365;DHT22;28498;54.400;18.566;2023-07-31T04:51:52;15.20;99.90
42365;DHT22;28498;54.400;18.566;2023-07-31T04:54:19;15.20;99.90
42365;DHT22;28498;54.400;18.566;2023-07-31T04:56:46;15.10;99.90
42365;DHT22;28498;54.400;18.566;2023-07-31T04:59:14;15.30;99.90
42365;DHT22;28498;54.400;18.566;2023-07-31T05:01:41;15.30;99.90
42365;DHT22;28498;54.400;18.566;2023-07-31T05:04:08;15.40;99.90
42365;DHT22;28498;54.400;18.566;2023-07-31T05:06:35;15.50;99.90
42365;DHT22;28498;54.400;18.566;2023-07-31T05:09:02;15.50;99.90
42365;DHT22;28498;54.400;18.566;2023-07-31T05:11:30;15.70;99.90
42365;DHT22;28498;54.400;18.566;2023-07-31T05:13:57;15.80;99.90
42365;DHT22;28498;54.400;18.566;2023-07-31T05:16:24;16.00;99.90
42365;DHT22;28498;54.400;18.566;2023-07-31T05:18:51;16.00;99.90
42365;DHT22;28498;54.400;18.566;2023-07-31T05:21:17;16.10;99.90
42365;DHT22;28498;54.400;18.566;2023-07-31T05:23:45;15.90;99.90
42365;DHT22;28498;54.400;18.566;2023-07-31T05:26:12;15.90;99.90
42365;DHT22;28498;54.400;18.566;2023-07-31T05:28:39;16.00;99.90
42365;DHT22;28498;54.400;18.566;2023-07-31T05:31:06;16.10;99.90
42365;DHT22;28498;54.400;18.566;2023-07-31T05:33:33;16.10;99.90
42365;DHT22;28498;54.400;18.566;2023-07-31T05:36:00;16.30;99.90
42365;DHT22;28498;54.400;18.566;2023-07-31T05:38:27;16.30;99.90
42365;DHT22;28498;54.400;18.566;2023-07-31T05:40:54;16.20;99.90
42365;DHT22;28498;54.400;18.566;2023-07-31T05:43:21;16.40;99.90
42365;DHT22;28498;54.400;18.566;2023-07-31T05:45:48;16.40;99.90
42365;DHT22;28498;54.400;18.566;2023-07-31T05:48:16;16.30;99.90
42365;DHT22;28498;54.400;18.566;2023-07-31T05:50:43;16.50;99.90
42365;DHT22;28498;54.400;18.566;2023-07-31T05:53:10;16.50;99.90
42365;DHT22;28498;54.400;18.566;2023-07-31T05:55:38;16.60;99.90
42365;DHT22;28498;54.400;18.566;2023-07-31T05:58:05;16.80;99.90
42365;DHT22;28498;54.400;18.566;2023-07-31T06:00:32;17.00;99.90
42365;DHT22;28498;54.400;18.566;2023-07-31T06:02:59;16.90;99.90
42365;DHT22;28498;54.400;18.566;2023-07-31T06:05:26;16.90;99.90
42365;DHT22;28498;54.400;18.566;2023-07-31T06:07:55;16.90;99.90
42365;DHT22;28498;54.400;18.566;2023-07-31T06:10:22;16.90;99.90
42365;DHT22;28498;54.400;18.566;2023-07-31T06:12:49;16.90;99.90
42365;DHT22;28498;54.400;18.566;2023-07-31T06:15:16;17.00;99.90
42365;DHT22;28498;54.400;18.566;2023-07-31T06:17:45;17.00;99.90
42365;DHT22;28498;54.400;18.566;2023-07-31T06:20:13;17.20;99.90
42365;DHT22;28498;54.400;18.566;2023-07-31T06:22:40;17.40;99.90
42365;DHT22;28498;54.400;18.566;2023-07-31T06:25:07;17.30;99.90
42365;DHT22;28498;54.400;18.566;2023-07-31T06:27:35;17.40;99.90
42365;DHT22;28498;54.400;18.566;2023-07-31T06:30:06;17.60;99.90
42365;DHT22;28498;54.400;18.566;2023-07-31T06:32:33;17.70;99.90
42365;DHT22;28498;54.400;18.566;2023-07-31T06:35:00;17.80;99.90
42365;DHT22;28498;54.400;18.566;2023-07-31T06:37:27;17.50;99.90
42365;DHT22;28498;54.400;18.566;2023-07-31T06:39:54;17.50;99.90
42365;DHT22;28498;54.400;18.566;2023-07-31T06:42:21;17.60;99.90
42365;DHT22;28498;54.400;18.566;2023-07-31T06:44:49;17.50;99.90
42365;DHT22;28498;54.400;18.566;2023-07-31T06:47:15;17.50;99.90
42365;DHT22;28498;54.400;18.566;2023-07-31T06:49:42;17.60;99.90
42365;DHT22;28498;54.400;18.566;2023-07-31T06:52:10;17.90;99.90
42365;DHT22;28498;54.400;18.566;2023-07-31T06:54:38;18.20;99.90
42365;DHT22;28498;54.400;18.566;2023-07-31T06:57:05;18.10;99.90
42365;DHT22;28498;54.400;18.566;2023-07-31T06:59:32;18.10;99.90
42365;DHT22;28498;54.400;18.566;2023-07-31T07:01:59;18.20;99.90
42365;DHT22;28498;54.400;18.566;2023-07-31T07:04:26;18.30;99.90
42365;DHT22;28498;54.400;18.566;2023-07-31T07:06:53;18.30;99.90
42365;DHT22;28498;54.400;18.566;2023-07-31T07:09:20;18.40;99.90
42365;DHT22;28498;54.400;18.566;2023-07-31T07:11:47;18.40;99.90
42365;DHT22;28498;54.400;18.566;2023-07-31T07:14:14;18.30;99.90
42365;DHT22;28498;54.400;18.566;2023-07-31T07:16:41;18.30;99.90
42365;DHT22;28498;54.400;18.566;2023-07-31T07:19:09;18.50;99.90
42365;DHT22;28498;54.400;18.566;2023-07-31T07:21:36;18.50;99.90
42365;DHT22;28498;54.400;18.566;2023-07-31T07:24:03;18.80;99.90
42365;DHT22;28498;54.400;18.566;2023-07-31T07:26:30;18.80;99.90
42365;DHT22;28498;54.400;18.566;2023-07-31T07:28:57;18.90;99.90
42365;DHT22;28498;54.400;18.566;2023-07-31T07:31:27;19.10;99.90
42365;DHT22;28498;54.400;18.566;2023-07-31T07:33:54;19.30;99.90
42365;DHT22;28498;54.400;18.566;2023-07-31T07:36:22;19.40;99.90
42365;DHT22;28498;54.400;18.566;2023-07-31T07:38:49;19.40;99.90
42365;DHT22;28498;54.400;18.566;2023-07-31T07:41:16;19.60;99.90
42365;DHT22;28498;54.400;18.566;2023-07-31T07:43:43;19.40;99.90
42365;DHT22;28498;54.400;18.566;2023-07-31T07:46:10;19.40;99.90
42365;DHT22;28498;54.400;18.566;2023-07-31T07:48:38;19.50;99.90
42365;DHT22;28498;54.400;18.566;2023-07-31T07:51:05;19.30;99.90
42365;DHT22;28498;54.400;18.566;2023-07-31T07:53:32;19.40;99.90
42365;DHT22;28498;54.400;18.566;2023-07-31T07:55:59;19.40;99.90
42365;DHT22;28498;54.400;18.566;2023-07-31T07:58:26;19.60;99.90
42365;DHT22;28498;54.400;18.566;2023-07-31T08:00:53;19.60;99.90
42365;DHT22;28498;54.400;18.566;2023-07-31T08:03:20;19.40;99.90
42365;DHT22;28498;54.400;18.566;2023-07-31T08:05:47;19.60;99.90
42365;DHT22;28498;54.400;18.566;2023-07-31T08:08:15;19.50;99.90
42365;DHT22;28498;54.400;18.566;2023-07-31T08:10:45;19.50;99.90
42365;DHT22;28498;54.400;18.566;2023-07-31T08:13:12;19.60;99.90
42365;DHT22;28498;54.400;18.566;2023-07-31T08:15:41;19.50;99.90
42365;DHT22;28498;54.400;18.566;2023-07-31T08:18:09;19.70;99.90
42365;DHT22;28498;54.400;18.566;2023-07-31T08:20:38;19.80;99.90
42365;DHT22;28498;54.400;18.566;2023-07-31T08:23:05;19.70;99.90
42365;DHT22;28498;54.400;18.566;2023-07-31T08:25:34;20.00;99.90
42365;DHT22;28498;54.400;18.566;2023-07-31T08:28:03;20.10;99.90
42365;DHT22;28498;54.400;18.566;2023-07-31T08:30:31;20.10;99.90
42365;DHT22;28498;54.400;18.566;2023-07-31T08:32:58;20.10;99.90
42365;DHT22;28498;54.400;18.566;2023-07-31T08:35:26;20.20;99.90
42365;DHT22;28498;54.400;18.566;2023-07-31T08:37:54;20.20;99.90
42365;DHT22;28498;54.400;18.566;2023-07-31T08:40:21;20.10;99.90
42365;DHT22;28498;54.400;18.566;2023-07-31T08:42:52;19.90;99.90
42365;DHT22;28498;54.400;18.566;2023-07-31T08:45:20;20.00;99.90
42365;DHT22;28498;54.400;18.566;2023-07-31T08:47:49;19.90;99.90
42365;DHT22;28498;54.400;18.566;2023-07-31T08:50:19;19.90;99.90
42365;DHT22;28498;54.400;18.566;2023-07-31T08:52:47;20.10;99.90
42365;DHT22;28498;54.400;18.566;2023-07-31T08:55:14;20.10;99.90
42365;DHT22;28498;54.400;18.566;2023-07-31T08:57:43;20.20;99.90
42365;DHT22;28498;54.400;18.566;2023-07-31T09:04:01;20.60;99.90
42365;DHT22;28498;54.400;18.566;2023-07-31T09:06:30;20.90;99.90
42365;DHT22;28498;54.400;18.566;2023-07-31T09:08:58;20.90;99.90
42365;DHT22;28498;54.400;18.566;2023-07-31T09:11:25;20.90;99.90
42365;DHT22;28498;54.400;18.566;2023-07-31T09:13:56;20.70;99.90
42365;DHT22;28498;54.400;18.566;2023-07-31T09:16:28;20.60;99.90
42365;DHT22;28498;54.400;18.566;2023-07-31T09:18:57;20.70;99.90
42365;DHT22;28498;54.400;18.566;2023-07-31T09:21:25;20.60;99.90
42365;DHT22;28498;54.400;18.566;2023-07-31T09:23:54;20.60;99.90
42365;DHT22;28498;54.400;18.566;2023-07-31T09:26:32;20.70;99.90
42365;DHT22;28498;54.400;18.566;2023-07-31T09:29:00;20.90;99.90
42365;DHT22;28498;54.400;18.566;2023-07-31T09:31:45;20.90;99.90
42365;DHT22;28498;54.400;18.566;2023-07-31T09:34:12;20.90;99.90
42365;DHT22;28498;54.400;18.566;2023-07-31T09:36:48;20.80;99.90
42365;DHT22;28498;54.400;18.566;2023-07-31T09:39:17;21.00;99.90
42365;DHT22;28498;54.400;18.566;2023-07-31T09:41:53;21.00;98.70
42365;DHT22;28498;54.400;18.566;2023-07-31T09:44:20;21.40;99.80
42365;DHT22;28498;54.400;18.566;2023-07-31T09:46:48;21.80;93.30
42365;DHT22;28498;54.400;18.566;2023-07-31T09:49:15;22.10;99.90
42365;DHT22;28498;54.400;18.566;2023-07-31T09:51:42;22.10;95.70
42365;DHT22;28498;54.400;18.566;2023-07-31T09:54:16;22.20;84.60
42365;DHT22;28498;54.400;18.566;2023-07-31T09:56:48;21.90;90.30
42365;DHT22;28498;54.400;18.566;2023-07-31T09:59:19;21.90;97.60
42365;DHT22;28498;54.400;18.566;2023-07-31T10:01:50;22.40;90.20
42365;DHT22;28498;54.400;18.566;2023-07-31T10:04:20;22.10;84.60
42365;DHT22;28498;54.400;18.566;2023-07-31T10:06:53;21.90;83.00
42365;DHT22;28498;54.400;18.566;2023-07-31T10:09:21;22.30;93.10
42365;DHT22;28498;54.400;18.566;2023-07-31T10:11:56;22.50;91.60
42365;DHT22;28498;54.400;18.566;2023-07-31T10:14:26;22.60;92.70
42365;DHT22;28498;54.400;18.566;2023-07-31T10:16:54;22.60;92.20
42365;DHT22;28498;54.400;18.566;2023-07-31T10:19:22;22.10;82.50
42365;DHT22;28498;54.400;18.566;2023-07-31T10:21:50;22.20;91.90
42365;DHT22;28498;54.400;18.566;2023-07-31T10:24:18;22.40;99.80
42365;DHT22;28498;54.400;18.566;2023-07-31T10:26:45;22.20;90.70
42365;DHT22;28498;54.400;18.566;2023-07-31T10:29:15;21.70;88.10
42365;DHT22;28498;54.400;18.566;2023-07-31T10:31:44;21.60;90.80
42365;DHT22;28498;54.400;18.566;2023-07-31T10:34:11;21.70;89.20
42365;DHT22;28498;54.400;18.566;2023-07-31T10:36:38;21.50;93.70
42365;DHT22;28498;54.400;18.566;2023-07-31T10:39:36;21.70;97.20
42365;DHT22;28498;54.400;18.566;2023-07-31T10:42:13;22.30;95.00
42365;DHT22;28498;54.400;18.566;2023-07-31T10:44:49;22.30;83.20
42365;DHT22;28498;54.400;18.566;2023-07-31T10:47:17;22.00;75.50
42365;DHT22;28498;54.400;18.566;2023-07-31T10:49:45;22.40;89.60
42365;DHT22;28498;54.400;18.566;2023-07-31T10:52:13;22.50;82.50
42365;DHT22;28498;54.400;18.566;2023-07-31T10:54:45;22.30;85.20
42365;DHT22;28498;54.400;18.566;2023-07-31T10:57:22;22.00;79.20
42365;DHT22;28498;54.400;18.566;2023-07-31T10:59:49;21.60;80.90
42365;DHT22;28498;54.400;18.566;2023-07-31T11:02:27;21.40;81.60
42365;DHT22;28498;54.400;18.566;2023-07-31T11:05:10;21.80;97.70
42365;DHT22;28498;54.400;18.566;2023-07-31T11:11:19;22.80;95.70
42365;DHT22;28498;54.400;18.566;2023-07-31T11:16:17;23.40;91.30
42365;DHT22;28498;54.400;18.566;2023-07-31T11:18:46;23.00;84.40
42365;DHT22;28498;54.400;18.566;2023-07-31T11:21:20;23.00;86.20
42365;DHT22;28498;54.400;18.566;2023-07-31T11:23:48;22.60;84.80
42365;DHT22;28498;54.400;18.566;2023-07-31T11:26:17;22.70;90.80
42365;DHT22;28498;54.400;18.566;2023-07-31T11:28:47;22.60;90.70
42365;DHT22;28498;54.400;18.566;2023-07-31T11:35:02;23.00;96.20
42365;DHT22;28498;54.400;18.566;2023-07-31T11:37:44;23.10;87.50
42365;DHT22;28498;54.400;18.566;2023-07-31T11:40:12;23.20;95.60
42365;DHT22;28498;54.400;18.566;2023-07-31T11:42:39;23.00;91.90
42365;DHT22;28498;54.400;18.566;2023-07-31T11:45:08;23.10;84.30
42365;DHT22;28498;54.400;18.566;2023-07-31T11:47:37;23.20;94.00
42365;DHT22;28498;54.400;18.566;2023-07-31T11:50:06;23.30;90.80
42365;DHT22;28498;54.400;18.566;2023-07-31T11:52:40;23.40;90.10
42365;DHT22;28498;54.400;18.566;2023-07-31T11:55:08;23.30;91.10
42365;DHT22;28498;54.400;18.566;2023-07-31T11:57:40;23.50;87.00
42365;DHT22;28498;54.400;18.566;2023-07-31T12:00:09;23.40;85.90
42365;DHT22;28498;54.400;18.566;2023-07-31T12:02:38;23.40;90.10
42365;DHT22;28498;54.400;18.566;2023-07-31T12:05:13;22.80;92.00
42365;DHT22;28498;54.400;18.566;2023-07-31T12:07:48;23.00;92.40
42365;DHT22;28498;54.400;18.566;2023-07-31T12:10:29;23.40;97.10
42365;DHT22;28498;54.400;18.566;2023-07-31T12:13:04;23.40;90.40
42365;DHT22;28498;54.400;18.566;2023-07-31T12:15:37;23.60;91.50
42365;DHT22;28498;54.400;18.566;2023-07-31T12:18:09;23.70;89.40
42365;DHT22;28498;54.400;18.566;2023-07-31T12:20:41;24.00;90.50
42365;DHT22;28498;54.400;18.566;2023-07-31T12:23:22;23.30;90.30
42365;DHT22;28498;54.400;18.566;2023-07-31T12:26:10;23.20;90.00
42365;DHT22;28498;54.400;18.566;2023-07-31T12:28:48;22.90;93.90
42365;DHT22;28498;54.400;18.566;2023-07-31T12:31:17;22.90;95.60
42365;DHT22;28498;54.400;18.566;2023-07-31T12:33:46;22.70;95.80
42365;DHT22;28498;54.400;18.566;2023-07-31T12:36:16;22.50;93.80
42365;DHT22;28498;54.400;18.566;2023-07-31T12:38:44;22.40;94.90
42365;DHT22;28498;54.400;18.566;2023-07-31T12:41:11;22.80;99.90
42365;DHT22;28498;54.400;18.566;2023-07-31T12:43:40;22.90;97.10
42365;DHT22;28498;54.400;18.566;2023-07-31T12:46:08;23.10;98.60
42365;DHT22;28498;54.400;18.566;2023-07-31T12:48:37;22.80;96.10
42365;DHT22;28498;54.400;18.566;2023-07-31T12:51:04;22.80;97.10
42365;DHT22;28498;54.400;18.566;2023-07-31T12:53:32;22.60;99.90
42365;DHT22;28498;54.400;18.566;2023-07-31T12:55:59;22.30;99.90
42365;DHT22;28498;54.400;18.566;2023-07-31T12:58:26;22.10;99.90
42365;DHT22;28498;54.400;18.566;2023-07-31T13:00:54;22.10;99.90
42365;DHT22;28498;54.400;18.566;2023-07-31T13:03:21;22.00;99.90
42365;DHT22;28498;54.400;18.566;2023-07-31T13:05:48;22.10;99.90
42365;DHT22;28498;54.400;18.566;2023-07-31T13:08:15;22.20;99.90
42365;DHT22;28498;54.400;18.566;2023-07-31T13:14:31;22.50;1.00
42365;DHT22;28498;54.400;18.566;2023-07-31T13:16:58;22.40;99.90
42365;DHT22;28498;54.400;18.566;2023-07-31T13:19:25;22.30;99.90
42365;DHT22;28498;54.400;18.566;2023-07-31T13:21:52;21.80;99.90
42365;DHT22;28498;54.400;18.566;2023-07-31T13:24:19;21.60;99.90
42365;DHT22;28498;54.400;18.566;2023-07-31T13:26:47;20.90;99.90
42365;DHT22;28498;54.400;18.566;2023-07-31T13:29:14;20.80;95.80
42365;DHT22;28498;54.400;18.566;2023-07-31T13:31:41;21.10;60.20
42365;DHT22;28498;54.400;18.566;2023-07-31T13:34:08;21.20;99.90
42365;DHT22;28498;54.400;18.566;2023-07-31T13:36:35;21.50;99.90
42365;DHT22;28498;54.400;18.566;2023-07-31T13:39:04;21.50;99.90
42365;DHT22;28498;54.400;18.566;2023-07-31T13:41:31;21.40;99.90
42365;DHT22;28498;54.400;18.566;2023-07-31T13:43:58;21.50;1.00
42365;DHT22;28498;54.400;18.566;2023-07-31T13:46:25;21.80;99.90
42365;DHT22;28498;54.400;18.566;2023-07-31T13:48:52;21.90;99.90
42365;DHT22;28498;54.400;18.566;2023-07-31T13:51:22;22.30;46.90
42365;DHT22;28498;54.400;18.566;2023-07-31T13:53:49;22.20;99.90
42365;DHT22;28498;54.400;18.566;2023-07-31T13:56:17;22.20;99.90
42365;DHT22;28498;54.400;18.566;2023-07-31T13:58:44;22.20;95.40
42365;DHT22;28498;54.400;18.566;2023-07-31T14:01:11;22.30;99.90
42365;DHT22;28498;54.400;18.566;2023-07-31T14:03:38;22.50;1.00
42365;DHT22;28498;54.400;18.566;2023-07-31T14:06:05;22.40;99.90
42365;DHT22;28498;54.400;18.566;2023-07-31T14:08:32;22.20;27.60
42365;DHT22;28498;54.400;18.566;2023-07-31T14:10:59;22.30;99.90
42365;DHT22;28498;54.400;18.566;2023-07-31T14:13:26;22.40;99.90
42365;DHT22;28498;54.400;18.566;2023-07-31T14:15:53;22.50;99.90
42365;DHT22;28498;54.400;18.566;2023-07-31T14:18:20;22.20;94.40
42365;DHT22;28498;54.400;18.566;2023-07-31T14:20:48;22.40;7.30
42365;DHT22;28498;54.400;18.566;2023-07-31T14:23:15;22.20;99.90
42365;DHT22;28498;54.400;18.566;2023-07-31T14:25:42;22.20;99.90
42365;DHT22;28498;54.400;18.566;2023-07-31T14:31:57;22.50;99.90
42365;DHT22;28498;54.400;18.566;2023-07-31T14:34:24;22.50;1.00
42365;DHT22;28498;54.400;18.566;2023-07-31T14:36:51;22.80;54.40
42365;DHT22;28498;54.400;18.566;2023-07-31T14:39:18;23.00;99.90
42365;DHT22;28498;54.400;18.566;2023-07-31T14:41:45;23.50;1.00
42365;DHT22;28498;54.400;18.566;2023-07-31T14:44:13;23.00;99.90
42365;DHT22;28498;54.400;18.566;2023-07-31T14:46:40;22.90;99.90
42365;DHT22;28498;54.400;18.566;2023-07-31T14:49:07;22.70;99.90
42365;DHT22;28498;54.400;18.566;2023-07-31T14:51:34;22.80;99.90
42365;DHT22;28498;54.400;18.566;2023-07-31T14:54:02;23.80;99.90
42365;DHT22;28498;54.400;18.566;2023-07-31T14:56:28;24.20;99.30
42365;DHT22;28498;54.400;18.566;2023-07-31T14:58:56;24.90;99.80
42365;DHT22;28498;54.400;18.566;2023-07-31T15:01:23;25.00;95.20
42365;DHT22;28498;54.400;18.566;2023-07-31T15:03:50;24.40;90.80
42365;DHT22;28498;54.400;18.566;2023-07-31T15:06:17;24.70;98.10
42365;DHT22;28498;54.400;18.566;2023-07-31T15:08:44;25.40;96.10
42365;DHT22;28498;54.400;18.566;2023-07-31T15:11:11;25.50;93.40
42365;DHT22;28498;54.400;18.566;2023-07-31T15:13:39;25.60;90.50
42365;DHT22;28498;54.400;18.566;2023-07-31T15:16:05;25.20;90.10
42365;DHT22;28498;54.400;18.566;2023-07-31T15:18:33;25.00;90.40
42365;DHT22;28498;54.400;18.566;2023-07-31T15:21:00;25.00;93.60
42365;DHT22;28498;54.400;18.566;2023-07-31T15:23:27;25.00;92.90
42365;DHT22;28498;54.400;18.566;2023-07-31T15:25:54;25.30;92.90
42365;DHT22;28498;54.400;18.566;2023-07-31T15:28:21;25.40;91.60
42365;DHT22;28498;54.400;18.566;2023-07-31T15:30:48;25.10;87.00
42365;DHT22;28498;54.400;18.566;2023-07-31T15:33:15;25.50;90.70
42365;DHT22;28498;54.400;18.566;2023-07-31T15:35:43;25.10;91.60
42365;DHT22;28498;54.400;18.566;2023-07-31T15:38:10;25.40;89.00
42365;DHT22;28498;54.400;18.566;2023-07-31T15:40:38;25.60;86.00
42365;DHT22;28498;54.400;18.566;2023-07-31T15:43:05;25.10;85.80
42365;DHT22;28498;54.400;18.566;2023-07-31T15:45:32;25.00;90.80
42365;DHT22;28498;54.400;18.566;2023-07-31T15:47:59;24.90;87.60
42365;DHT22;28498;54.400;18.566;2023-07-31T15:50:26;24.40;93.00
42365;DHT22;28498;54.400;18.566;2023-07-31T15:52:53;24.20;95.40
42365;DHT22;28498;54.400;18.566;2023-07-31T15:55:20;23.50;98.50